createdAt,value
2016-12-28T00:00:21.366Z,1038.13
2016-12-28T00:01:21.622Z,1038.12
2016-12-28T00:02:21.329Z,1038.11
2016-12-28T00:03:21.337Z,1038.12
2016-12-28T00:04:21.344Z,1038.14
2016-12-28T00:05:21.350Z,1038.13
2016-12-28T00:06:21.358Z,1038.14
2016-12-28T00:07:21.415Z,1038.16
2016-12-28T00:08:21.372Z,1038.19
2016-12-28T00:09:21.377Z,1038.23
2016-12-28T00:10:21.385Z,1038.21
2016-12-28T00:11:21.393Z,1038.19
2016-12-28T00:12:21.451Z,1038.17
2016-12-28T00:13:21.409Z,1038.16
2016-12-28T00:14:21.465Z,1038.14
2016-12-28T00:15:21.421Z,1038.14
2016-12-28T00:16:22.429Z,1038.11
2016-12-28T00:17:21.485Z,1038.09
2016-12-28T00:18:21.442Z,1038.14
2016-12-28T00:19:21.449Z,1038.12
2016-12-28T00:20:21.456Z,1038.16
2016-12-28T00:21:21.464Z,1038.15
2016-12-28T00:22:21.470Z,1038.18
2016-12-28T00:23:21.527Z,1038.21
2016-12-28T00:24:21.533Z,1038.2
2016-12-28T00:25:21.491Z,1038.18
2016-12-28T00:26:21.497Z,1038.16
2016-12-28T00:27:21.504Z,1038.14
2016-12-28T00:28:21.510Z,1038.11
2016-12-28T00:29:21.519Z,1038.11
2016-12-28T00:30:21.577Z,1038.07
2016-12-28T00:31:22.633Z,1038.05
2016-12-28T00:32:21.539Z,1038.09
2016-12-28T00:33:21.611Z,1038.13
2016-12-28T00:34:21.553Z,1038.15
2016-12-28T00:35:21.559Z,1038.1
2016-12-28T00:36:21.566Z,1038.17
2016-12-28T00:37:21.623Z,1038.18
2016-12-28T00:38:21.581Z,1038.22
2016-12-28T00:39:21.587Z,1038.2
2016-12-28T00:40:21.643Z,1038.18
2016-12-28T00:41:21.599Z,1038.18
2016-12-28T00:42:21.608Z,1038.16
2016-12-28T00:43:21.665Z,1038.13
2016-12-28T00:44:21.620Z,1038.15
2016-12-28T00:45:21.626Z,1038.18
2016-12-28T00:46:21.683Z,1038.17
2016-12-28T00:47:21.641Z,1038.22
2016-12-28T00:48:21.648Z,1038.25
2016-12-28T00:49:21.705Z,1038.27
2016-12-28T00:50:21.661Z,1038.27
2016-12-28T00:51:21.718Z,1038.3
2016-12-28T00:52:21.675Z,1038.29
2016-12-28T00:53:22.432Z,1038.34
2016-12-28T00:54:21.689Z,1038.32
2016-12-28T00:55:21.745Z,1038.34
2016-12-28T00:56:21.751Z,1038.33
2016-12-28T00:57:21.708Z,1038.37
2016-12-28T00:58:21.715Z,1038.36
2016-12-28T00:59:21.723Z,1038.37
2016-12-28T01:00:21.779Z,1038.41
2016-12-28T01:01:21.786Z,1038.41
2016-12-28T01:02:21.793Z,1038.39
2016-12-28T01:03:21.801Z,1038.45
2016-12-28T01:04:21.806Z,1038.43
2016-12-28T01:05:21.763Z,1038.41
2016-12-28T01:06:21.771Z,1038.4
2016-12-28T01:07:21.777Z,1038.39
2016-12-28T01:08:21.785Z,1038.39
2016-12-28T01:09:21.791Z,1038.4
2016-12-28T01:10:21.798Z,1038.45
2016-12-28T01:11:21.804Z,1038.4
2016-12-28T01:12:21.812Z,1038.43
2016-12-28T01:13:21.820Z,1038.39
2016-12-28T01:14:21.827Z,1038.38
2016-12-28T01:15:22.232Z,1038.35
2016-12-28T01:16:21.841Z,1038.35
2016-12-28T01:17:21.898Z,1038.35
2016-12-28T01:18:21.854Z,1038.37
2016-12-28T01:19:21.860Z,1038.42
2016-12-28T01:20:21.918Z,1038.4
2016-12-28T01:21:21.926Z,1038.39
2016-12-28T01:22:21.882Z,1038.44
2016-12-28T01:23:21.890Z,1038.45
2016-12-28T01:24:21.896Z,1038.36
2016-12-28T01:25:21.904Z,1038.36
2016-12-28T01:26:21.908Z,1038.39
2016-12-28T01:27:21.917Z,1038.41
2016-12-28T01:28:21.925Z,1038.41
2016-12-28T01:29:21.929Z,1038.41
2016-12-28T01:30:21.938Z,1038.44
2016-12-28T01:31:21.945Z,1038.44
2016-12-28T01:32:21.952Z,1038.43
2016-12-28T01:33:22.010Z,1038.46
2016-12-28T01:34:22.017Z,1038.47
2016-12-28T01:35:21.973Z,1038.47
2016-12-28T01:36:21.981Z,1038.47
2016-12-28T01:37:22.137Z,1038.47
2016-12-28T01:38:21.994Z,1038.47
2016-12-28T01:39:22.002Z,1038.5
2016-12-28T01:40:22.008Z,1038.5
2016-12-28T01:41:22.065Z,1038.48
2016-12-28T01:42:22.022Z,1038.49
2016-12-28T01:43:22.029Z,1038.51
2016-12-28T01:44:22.039Z,1038.5
2016-12-28T01:45:22.043Z,1038.53
2016-12-28T01:46:22.050Z,1038.55
2016-12-28T01:47:22.058Z,1038.56
2016-12-28T01:48:22.065Z,1038.56
2016-12-28T01:49:22.072Z,1038.5
2016-12-28T01:50:22.079Z,1038.49
2016-12-28T01:51:22.136Z,1038.5
2016-12-28T01:52:22.093Z,1038.53
2016-12-28T01:53:22.100Z,1038.5
2016-12-28T01:54:22.107Z,1038.51
2016-12-28T01:55:22.114Z,1038.58
2016-12-28T01:56:22.122Z,1038.61
2016-12-28T01:57:22.178Z,1038.64
2016-12-28T01:58:22.135Z,1038.68
2016-12-28T01:59:22.193Z,1038.61
2016-12-28T02:00:22.149Z,1038.63
2016-12-28T02:01:23.277Z,1038.58
2016-12-28T02:02:22.163Z,1038.56
2016-12-28T02:03:22.170Z,1038.56
2016-12-28T02:04:22.176Z,1038.48
2016-12-28T02:05:22.184Z,1038.49
2016-12-28T02:06:22.190Z,1038.5
2016-12-28T02:07:22.197Z,1038.53
2016-12-28T02:08:22.205Z,1038.55
2016-12-28T02:09:22.212Z,1038.58
2016-12-28T02:10:22.219Z,1038.62
2016-12-28T02:11:22.226Z,1038.63
2016-12-28T02:12:22.233Z,1038.58
2016-12-28T02:13:22.239Z,1038.56
2016-12-28T02:14:22.247Z,1038.54
2016-12-28T02:15:22.253Z,1038.52
2016-12-28T02:16:22.261Z,1038.53
2016-12-28T02:17:22.266Z,1038.54
2016-12-28T02:18:22.275Z,1038.53
2016-12-28T02:19:22.282Z,1038.47
2016-12-28T02:20:22.293Z,1038.52
2016-12-28T02:21:22.296Z,1038.5
2016-12-28T02:22:22.303Z,1038.46
2016-12-28T02:23:23.311Z,1038.43
2016-12-28T02:24:22.317Z,1038.43
2016-12-28T02:25:22.324Z,1038.37
2016-12-28T02:26:22.331Z,1038.34
2016-12-28T02:27:22.390Z,1038.37
2016-12-28T02:28:22.346Z,1038.35
2016-12-28T02:29:22.408Z,1038.4
2016-12-28T02:30:22.358Z,1038.35
2016-12-28T02:31:22.365Z,1038.4
2016-12-28T02:32:22.371Z,1038.37
2016-12-28T02:33:22.380Z,1038.38
2016-12-28T02:34:22.436Z,1038.42
2016-12-28T02:35:22.393Z,1038.42
2016-12-28T02:36:22.400Z,1038.44
2016-12-28T02:37:22.410Z,1038.42
2016-12-28T02:38:22.464Z,1038.43
2016-12-28T02:39:22.470Z,1038.38
2016-12-28T02:40:22.427Z,1038.39
2016-12-28T02:41:22.435Z,1038.38
2016-12-28T02:42:22.440Z,1038.36
2016-12-28T02:43:22.447Z,1038.36
2016-12-28T02:44:22.455Z,1038.39
2016-12-28T02:45:23.263Z,1038.31
2016-12-28T02:46:22.467Z,1038.32
2016-12-28T02:47:22.476Z,1038.32
2016-12-28T02:48:22.534Z,1038.26
2016-12-28T02:49:22.540Z,1038.23
2016-12-28T02:50:22.546Z,1038.23
2016-12-28T02:51:22.503Z,1038.19
2016-12-28T02:52:22.511Z,1038.16
2016-12-28T02:53:22.517Z,1038.13
2016-12-28T02:54:22.525Z,1038.14
2016-12-28T02:55:22.531Z,1038.14
2016-12-28T02:56:22.538Z,1038.19
2016-12-28T02:57:22.545Z,1038.14
2016-12-28T02:58:22.551Z,1038.14
2016-12-28T02:59:22.559Z,1038.21
2016-12-28T03:00:23.620Z,1038.18
2016-12-28T03:01:22.571Z,1038.15
2016-12-28T03:02:22.580Z,1038.12
2016-12-28T03:03:22.587Z,1038.06
2016-12-28T03:04:22.592Z,1037.98
2016-12-28T03:05:22.602Z,1038.02
2016-12-28T03:06:22.607Z,1037.99
2016-12-28T03:07:22.664Z,1037.95
2016-12-28T03:08:22.620Z,1037.93
2016-12-28T03:09:22.627Z,1037.96
2016-12-28T03:10:22.685Z,1037.95
2016-12-28T03:11:22.691Z,1037.95
2016-12-28T03:12:22.647Z,1037.95
2016-12-28T03:13:22.703Z,1037.94
2016-12-28T03:14:22.660Z,1037.89
2016-12-28T03:15:22.670Z,1037.9
2016-12-28T03:16:22.675Z,1037.9
2016-12-28T03:17:22.682Z,1037.86
2016-12-28T03:18:22.691Z,1037.91
2016-12-28T03:19:22.696Z,1037.87
2016-12-28T03:20:22.703Z,1037.86
2016-12-28T03:21:22.711Z,1037.88
2016-12-28T03:22:23.568Z,1037.91
2016-12-28T03:23:22.724Z,1037.92
2016-12-28T03:24:22.733Z,1037.9
2016-12-28T03:25:22.739Z,1037.9
2016-12-28T03:26:22.745Z,1037.87
2016-12-28T03:27:22.752Z,1037.86
2016-12-28T03:28:22.759Z,1037.81
2016-12-28T03:29:22.766Z,1037.83
2016-12-28T03:30:22.771Z,1037.85
2016-12-28T03:31:22.780Z,1037.85
2016-12-28T03:32:23.088Z,1037.86
2016-12-28T03:33:22.795Z,1037.86
2016-12-28T03:34:22.801Z,1037.85
2016-12-28T03:35:22.810Z,1037.84
2016-12-28T03:36:22.866Z,1037.83
2016-12-28T03:37:22.822Z,1037.83
2016-12-28T03:38:22.828Z,1037.88
2016-12-28T03:39:22.835Z,1037.89
2016-12-28T03:40:22.894Z,1037.87
2016-12-28T03:41:22.848Z,1037.84
2016-12-28T03:42:22.858Z,1037.84
2016-12-28T03:43:22.915Z,1037.79
2016-12-28T03:44:23.521Z,1037.78
2016-12-28T03:45:22.878Z,1037.79
2016-12-28T03:46:22.886Z,1037.78
2016-12-28T03:47:22.892Z,1037.77
2016-12-28T03:48:22.898Z,1037.73
2016-12-28T03:49:22.906Z,1037.69
2016-12-28T03:50:22.913Z,1037.7
2016-12-28T03:51:22.922Z,1037.67
2016-12-28T03:52:22.927Z,1037.68
2016-12-28T03:53:22.934Z,1037.7
2016-12-28T03:54:22.991Z,1037.67
2016-12-28T03:55:22.948Z,1037.65
2016-12-28T03:56:22.955Z,1037.67
2016-12-28T03:57:23.012Z,1037.66
2016-12-28T03:58:23.018Z,1037.6
2016-12-28T03:59:22.977Z,1037.62
2016-12-28T04:00:22.984Z,1037.57
2016-12-28T04:01:22.990Z,1037.58
2016-12-28T04:02:22.999Z,1037.55
2016-12-28T04:03:23.004Z,1037.56
2016-12-28T04:04:23.013Z,1037.57
2016-12-28T04:05:23.018Z,1037.58
2016-12-28T04:06:23.776Z,1037.59
2016-12-28T04:07:23.034Z,1037.56
2016-12-28T04:08:23.040Z,1037.55
2016-12-28T04:09:23.047Z,1037.54
2016-12-28T04:10:23.053Z,1037.54
2016-12-28T04:11:23.060Z,1037.56
2016-12-28T04:12:23.117Z,1037.53
2016-12-28T04:13:23.076Z,1037.54
2016-12-28T04:14:23.081Z,1037.53
2016-12-28T04:15:23.089Z,1037.48
2016-12-28T04:16:23.097Z,1037.54
2016-12-28T04:17:23.102Z,1037.54
2016-12-28T04:18:23.109Z,1037.52
2016-12-28T04:19:23.116Z,1037.5
2016-12-28T04:20:23.125Z,1037.51
2016-12-28T04:21:23.130Z,1037.53
2016-12-28T04:22:23.137Z,1037.5
2016-12-28T04:23:23.194Z,1037.48
2016-12-28T04:24:23.151Z,1037.48
2016-12-28T04:25:23.159Z,1037.5
2016-12-28T04:26:23.166Z,1037.5
2016-12-28T04:27:23.222Z,1037.46
2016-12-28T04:28:24.180Z,1037.48
2016-12-28T04:29:23.236Z,1037.43
2016-12-28T04:30:23.244Z,1037.46
2016-12-28T04:31:23.251Z,1037.44
2016-12-28T04:32:23.208Z,1037.45
2016-12-28T04:33:23.216Z,1037.48
2016-12-28T04:34:23.221Z,1037.45
2016-12-28T04:35:23.529Z,1037.41
2016-12-28T04:36:23.236Z,1037.39
2016-12-28T04:37:23.243Z,1037.4
2016-12-28T04:38:23.249Z,1037.38
2016-12-28T04:39:23.257Z,1037.37
2016-12-28T04:40:23.315Z,1037.36
2016-12-28T04:41:23.271Z,1037.35
2016-12-28T04:42:23.277Z,1037.35
2016-12-28T04:43:24.035Z,1037.35
2016-12-28T04:44:23.291Z,1037.41
2016-12-28T04:45:23.299Z,1037.39
2016-12-28T04:46:23.357Z,1037.4
2016-12-28T04:47:23.312Z,1037.42
2016-12-28T04:48:23.320Z,1037.4
2016-12-28T04:49:23.327Z,1037.44
2016-12-28T04:50:23.334Z,1037.42
2016-12-28T04:51:23.340Z,1037.43
2016-12-28T04:52:23.349Z,1037.42
2016-12-28T04:53:23.356Z,1037.44
2016-12-28T04:54:23.412Z,1037.39
2016-12-28T04:55:23.369Z,1037.36
2016-12-28T04:56:23.377Z,1037.37
2016-12-28T04:57:23.384Z,1037.37
2016-12-28T04:58:23.391Z,1037.37
2016-12-28T04:59:23.399Z,1037.4
2016-12-28T05:00:23.406Z,1037.43
2016-12-28T05:01:23.462Z,1037.44
2016-12-28T05:02:23.418Z,1037.47
2016-12-28T05:03:23.427Z,1037.49
2016-12-28T05:04:23.436Z,1037.47
2016-12-28T05:05:23.891Z,1037.44
2016-12-28T05:06:23.449Z,1037.45
2016-12-28T05:07:23.505Z,1037.46
2016-12-28T05:08:23.461Z,1037.45
2016-12-28T05:09:23.468Z,1037.46
2016-12-28T05:10:23.476Z,1037.49
2016-12-28T05:11:23.484Z,1037.45
2016-12-28T05:12:23.489Z,1037.45
2016-12-28T05:13:23.560Z,1037.44
2016-12-28T05:14:23.505Z,1037.47
2016-12-28T05:15:23.563Z,1037.41
2016-12-28T05:16:23.570Z,1037.41
2016-12-28T05:17:23.527Z,1037.48
2016-12-28T05:18:23.533Z,1037.46
2016-12-28T05:19:23.591Z,1037.48
2016-12-28T05:20:23.549Z,1037.5
2016-12-28T05:21:23.556Z,1037.57
2016-12-28T05:22:23.564Z,1037.53
2016-12-28T05:23:23.570Z,1037.57
2016-12-28T05:24:23.578Z,1037.54
2016-12-28T05:25:23.585Z,1037.57
2016-12-28T05:26:23.594Z,1037.6
2016-12-28T05:27:24.550Z,1037.57
2016-12-28T05:28:23.607Z,1037.58
2016-12-28T05:29:23.665Z,1037.58
2016-12-28T05:30:23.671Z,1037.61
2016-12-28T05:31:23.631Z,1037.61
2016-12-28T05:32:23.636Z,1037.59
2016-12-28T05:33:23.644Z,1037.64
2016-12-28T05:34:23.701Z,1037.62
2016-12-28T05:35:23.707Z,1037.56
2016-12-28T05:36:23.679Z,1037.59
2016-12-28T05:37:23.673Z,1037.63
2016-12-28T05:38:23.679Z,1037.62
2016-12-28T05:39:23.686Z,1037.62
2016-12-28T05:40:23.694Z,1037.66
2016-12-28T05:41:23.700Z,1037.66
2016-12-28T05:42:23.709Z,1037.68
2016-12-28T05:43:23.716Z,1037.71
2016-12-28T05:44:23.723Z,1037.73
2016-12-28T05:45:23.729Z,1037.73
2016-12-28T05:46:23.736Z,1037.76
2016-12-28T05:47:23.745Z,1037.79
2016-12-28T05:48:23.802Z,1037.78
2016-12-28T05:49:24.913Z,1037.77
2016-12-28T05:50:23.767Z,1037.83
2016-12-28T05:51:23.824Z,1037.8
2016-12-28T05:52:23.780Z,1037.81
2016-12-28T05:53:23.789Z,1037.8
2016-12-28T05:54:23.796Z,1037.75
2016-12-28T05:55:23.804Z,1037.75
2016-12-28T05:56:23.860Z,1037.76
2016-12-28T05:57:23.816Z,1037.73
2016-12-28T05:58:23.876Z,1037.69
2016-12-28T05:59:23.832Z,1037.7
2016-12-28T06:00:23.839Z,1037.74
2016-12-28T06:01:23.847Z,1037.74
2016-12-28T06:02:23.854Z,1037.78
2016-12-28T06:03:23.861Z,1037.78
2016-12-28T06:04:23.869Z,1037.83
2016-12-28T06:05:23.877Z,1037.82
2016-12-28T06:06:23.883Z,1037.82
2016-12-28T06:07:23.890Z,1037.84
2016-12-28T06:08:23.948Z,1037.8
2016-12-28T06:09:23.955Z,1037.8
2016-12-28T06:10:23.911Z,1037.79
2016-12-28T06:11:23.920Z,1037.82
2016-12-28T06:12:23.927Z,1037.81
2016-12-28T06:13:23.985Z,1037.78
2016-12-28T06:14:23.941Z,1037.76
2016-12-28T06:15:23.949Z,1037.74
2016-12-28T06:16:23.956Z,1037.72
2016-12-28T06:17:23.971Z,1037.73
2016-12-28T06:18:23.971Z,1037.73
2016-12-28T06:19:23.979Z,1037.74
2016-12-28T06:20:24.035Z,1037.77
2016-12-28T06:21:23.993Z,1037.81
2016-12-28T06:22:24.000Z,1037.83
2016-12-28T06:23:24.006Z,1037.91
2016-12-28T06:24:24.065Z,1037.98
2016-12-28T06:25:24.021Z,1038.03
2016-12-28T06:26:25.130Z,1038.03
2016-12-28T06:27:24.035Z,1038.01
2016-12-28T06:28:24.042Z,1038.04
2016-12-28T06:29:24.050Z,1038.04
2016-12-28T06:30:24.107Z,1038.04
2016-12-28T06:31:24.066Z,1038.07
2016-12-28T06:32:24.072Z,1038.07
2016-12-28T06:33:24.079Z,1038.08
2016-12-28T06:34:24.086Z,1038.04
2016-12-28T06:35:24.096Z,1038.05
2016-12-28T06:36:24.101Z,1038.02
2016-12-28T06:37:24.159Z,1038.07
2016-12-28T06:38:24.115Z,1038.08
2016-12-28T06:39:24.123Z,1038.06
2016-12-28T06:40:24.128Z,1038.04
2016-12-28T06:41:24.136Z,1038.07
2016-12-28T06:42:24.145Z,1038.11
2016-12-28T06:43:24.150Z,1038.13
2016-12-28T06:44:24.157Z,1038.12
2016-12-28T06:45:24.165Z,1038.18
2016-12-28T06:46:24.172Z,1038.17
2016-12-28T06:47:24.228Z,1038.19
2016-12-28T06:48:25.042Z,1038.21
2016-12-28T06:49:24.192Z,1038.18
2016-12-28T06:50:24.199Z,1038.21
2016-12-28T06:51:24.505Z,1038.21
2016-12-28T06:52:24.263Z,1038.22
2016-12-28T06:53:24.227Z,1038.18
2016-12-28T06:54:24.227Z,1038.21
2016-12-28T06:55:24.233Z,1038.2
2016-12-28T06:56:24.240Z,1038.22
2016-12-28T06:57:24.249Z,1038.2
2016-12-28T06:58:24.256Z,1038.19
2016-12-28T06:59:24.261Z,1038.15
2016-12-28T07:00:24.268Z,1038.19
2016-12-28T07:01:24.276Z,1038.14
2016-12-28T07:02:24.282Z,1038.16
2016-12-28T07:03:24.339Z,1038.16
2016-12-28T07:04:24.346Z,1038.17
2016-12-28T07:05:24.303Z,1038.22
2016-12-28T07:06:24.311Z,1038.21
2016-12-28T07:07:24.367Z,1038.26
2016-12-28T07:08:24.325Z,1038.27
2016-12-28T07:09:24.330Z,1038.29
2016-12-28T07:10:25.290Z,1038.28
2016-12-28T07:11:24.395Z,1038.29
2016-12-28T07:12:24.354Z,1038.3
2016-12-28T07:13:24.360Z,1038.3
2016-12-28T07:14:24.367Z,1038.29
2016-12-28T07:15:24.373Z,1038.26
2016-12-28T07:16:24.381Z,1038.26
2016-12-28T07:17:24.387Z,1038.24
2016-12-28T07:18:24.394Z,1038.24
2016-12-28T07:19:24.451Z,1038.24
2016-12-28T07:20:24.406Z,1038.29
2016-12-28T07:21:24.415Z,1038.27
2016-12-28T07:22:24.422Z,1038.3
2016-12-28T07:23:24.429Z,1038.3
2016-12-28T07:24:24.435Z,1038.3
2016-12-28T07:25:24.443Z,1038.32
2016-12-28T07:26:24.450Z,1038.32
2016-12-28T07:27:24.456Z,1038.34
2016-12-28T07:28:27.372Z,1038.36
2016-12-28T07:29:24.470Z,1038.46
2016-12-28T07:30:24.479Z,1038.43
2016-12-28T07:31:24.484Z,1038.45
2016-12-28T07:32:24.791Z,1038.46
2016-12-28T07:33:24.499Z,1038.43
2016-12-28T07:34:24.505Z,1038.45
2016-12-28T07:35:24.562Z,1038.48
2016-12-28T07:36:24.519Z,1038.48
2016-12-28T07:37:24.526Z,1038.49
2016-12-28T07:38:24.530Z,1038.48
2016-12-28T07:39:24.591Z,1038.44
2016-12-28T07:40:24.597Z,1038.47
2016-12-28T07:41:24.605Z,1038.41
2016-12-28T07:42:24.561Z,1038.41
2016-12-28T07:43:24.568Z,1038.4
2016-12-28T07:44:24.574Z,1038.34
2016-12-28T07:45:24.583Z,1038.38
2016-12-28T07:46:24.589Z,1038.33
2016-12-28T07:47:24.597Z,1038.31
2016-12-28T07:48:24.605Z,1038.34
2016-12-28T07:49:24.661Z,1038.31
2016-12-28T07:50:24.619Z,1038.27
2016-12-28T07:51:24.676Z,1038.26
2016-12-28T07:52:24.682Z,1038.27
2016-12-28T07:53:24.642Z,1038.3
2016-12-28T07:54:24.745Z,1038.27
2016-12-28T07:55:24.656Z,1038.24
2016-12-28T07:56:24.661Z,1038.25
2016-12-28T07:57:24.717Z,1038.31
2016-12-28T07:58:24.674Z,1038.32
2016-12-28T07:59:24.684Z,1038.38
2016-12-28T08:00:24.688Z,1038.38
2016-12-28T08:01:24.695Z,1038.4
2016-12-28T08:02:24.702Z,1038.38
2016-12-28T08:03:24.712Z,1038.39
2016-12-28T08:04:24.717Z,1038.35
2016-12-28T08:05:24.724Z,1038.37
2016-12-28T08:06:24.732Z,1038.36
2016-12-28T08:07:24.739Z,1038.34
2016-12-28T08:08:24.746Z,1038.35
2016-12-28T08:09:24.855Z,1038.32
2016-12-28T08:10:24.762Z,1038.34
2016-12-28T08:11:24.769Z,1038.33
2016-12-28T08:12:24.826Z,1038.34
2016-12-28T08:13:24.784Z,1038.31
2016-12-28T08:14:24.793Z,1038.32
2016-12-28T08:15:24.796Z,1038.36
2016-12-28T08:16:24.806Z,1038.4
2016-12-28T08:17:24.814Z,1038.38
2016-12-28T08:18:25.921Z,1038.4
2016-12-28T08:19:24.827Z,1038.47
2016-12-28T08:20:24.886Z,1038.47
2016-12-28T08:21:24.845Z,1038.47
2016-12-28T08:22:24.900Z,1038.46
2016-12-28T08:23:24.908Z,1038.44
2016-12-28T08:24:24.865Z,1038.5
2016-12-28T08:25:24.924Z,1038.49
2016-12-28T08:26:24.881Z,1038.47
2016-12-28T08:27:24.888Z,1038.47
2016-12-28T08:28:24.945Z,1038.43
2016-12-28T08:29:24.902Z,1038.44
2016-12-28T08:30:24.910Z,1038.42
2016-12-28T08:31:25.167Z,1038.44
2016-12-28T08:32:24.922Z,1038.46
2016-12-28T08:33:24.931Z,1038.45
2016-12-28T08:34:24.939Z,1038.44
2016-12-28T08:35:24.947Z,1038.45
2016-12-28T08:36:24.953Z,1038.45
2016-12-28T08:37:25.012Z,1038.49
2016-12-28T08:38:24.969Z,1038.52
2016-12-28T08:39:25.028Z,1038.55
2016-12-28T08:40:26.201Z,1038.6
2016-12-28T08:41:25.041Z,1038.58
2016-12-28T08:42:24.998Z,1038.59
2016-12-28T08:43:25.007Z,1038.58
2016-12-28T08:44:25.064Z,1038.55
2016-12-28T08:45:25.022Z,1038.53
2016-12-28T08:46:25.030Z,1038.48
2016-12-28T08:47:25.040Z,1038.48
2016-12-28T08:48:25.043Z,1038.44
2016-12-28T08:49:25.051Z,1038.5
2016-12-28T08:50:25.108Z,1038.5
2016-12-28T08:51:25.066Z,1038.53
2016-12-28T08:52:25.073Z,1038.55
2016-12-28T08:53:25.081Z,1038.57
2016-12-28T08:54:25.091Z,1038.62
2016-12-28T08:55:26.197Z,1038.63
2016-12-28T08:56:25.154Z,1038.62
2016-12-28T08:57:25.111Z,1038.62
2016-12-28T08:58:25.170Z,1038.67
2016-12-28T08:59:25.125Z,1038.7
2016-12-28T09:00:25.135Z,1038.72
2016-12-28T09:01:25.143Z,1038.72
2016-12-28T09:02:25.148Z,1038.77
2016-12-28T09:03:25.156Z,1038.79
2016-12-28T09:04:25.163Z,1038.79
2016-12-28T09:05:25.221Z,1038.84
2016-12-28T09:06:25.178Z,1038.82
2016-12-28T09:07:25.186Z,1038.8
2016-12-28T09:08:25.244Z,1038.79
2016-12-28T09:09:25.201Z,1038.74
2016-12-28T09:10:25.212Z,1038.78
2016-12-28T09:11:25.215Z,1038.66
2016-12-28T09:12:25.223Z,1038.67
2016-12-28T09:13:25.231Z,1038.7
2016-12-28T09:14:25.240Z,1038.66
2016-12-28T09:15:25.296Z,1038.63
2016-12-28T09:16:25.254Z,1038.68
2016-12-28T09:17:26.012Z,1038.69
2016-12-28T09:18:25.270Z,1038.67
2016-12-28T09:19:25.277Z,1038.7
2016-12-28T09:20:25.284Z,1038.7
2016-12-28T09:21:25.341Z,1038.76
2016-12-28T09:22:25.299Z,1038.75
2016-12-28T09:23:25.308Z,1038.72
2016-12-28T09:24:25.314Z,1038.73
2016-12-28T09:25:25.321Z,1038.65
2016-12-28T09:26:25.330Z,1038.63
2016-12-28T09:27:25.338Z,1038.63
2016-12-28T09:28:25.396Z,1038.57
2016-12-28T09:29:25.352Z,1038.6
2016-12-28T09:30:25.410Z,1038.57
2016-12-28T09:31:25.369Z,1038.57
2016-12-28T09:32:25.423Z,1038.59
2016-12-28T09:33:25.433Z,1038.58
2016-12-28T09:34:25.391Z,1038.57
2016-12-28T09:35:25.398Z,1038.55
2016-12-28T09:36:25.405Z,1038.58
2016-12-28T09:37:25.414Z,1038.54
2016-12-28T09:38:25.421Z,1038.58
2016-12-28T09:39:26.228Z,1038.61
2016-12-28T09:40:25.437Z,1038.64
2016-12-28T09:41:25.443Z,1038.63
2016-12-28T09:42:25.452Z,1038.64
2016-12-28T09:43:25.460Z,1038.63
2016-12-28T09:44:25.467Z,1038.6
2016-12-28T09:45:25.477Z,1038.6
2016-12-28T09:46:25.483Z,1038.62
2016-12-28T09:47:25.540Z,1038.57
2016-12-28T09:48:25.499Z,1038.6
2016-12-28T09:49:25.507Z,1038.62
2016-12-28T09:50:26.796Z,1038.59
2016-12-28T09:51:25.523Z,1038.63
2016-12-28T09:52:25.533Z,1038.62
2016-12-28T09:53:25.539Z,1038.61
2016-12-28T09:54:25.596Z,1038.64
2016-12-28T09:55:25.645Z,1038.66
2016-12-28T09:56:25.562Z,1038.68
2016-12-28T09:57:25.620Z,1038.72
2016-12-28T09:58:25.579Z,1038.76
2016-12-28T09:59:25.636Z,1038.73
2016-12-28T10:00:25.596Z,1038.71
2016-12-28T10:01:25.652Z,1038.72
2016-12-28T10:02:25.697Z,1038.72
2016-12-28T10:03:25.669Z,1038.75
2016-12-28T10:04:25.626Z,1038.72
2016-12-28T10:05:25.635Z,1038.73
2016-12-28T10:06:25.644Z,1038.7
2016-12-28T10:07:25.652Z,1038.66
2016-12-28T10:08:26.774Z,1038.64
2016-12-28T10:09:25.667Z,1038.57
2016-12-28T10:10:25.727Z,1038.57
2016-12-28T10:11:25.683Z,1038.55
2016-12-28T10:12:25.689Z,1038.52
2016-12-28T10:13:25.699Z,1038.53
2016-12-28T10:14:25.706Z,1038.58
2016-12-28T10:15:25.715Z,1038.56
2016-12-28T10:16:25.776Z,1038.64
2016-12-28T10:17:26.707Z,1038.63
2016-12-28T10:18:25.740Z,1038.62
2016-12-28T10:19:25.748Z,1038.62
2016-12-28T10:20:25.754Z,1038.59
2016-12-28T10:21:25.765Z,1038.58
2016-12-28T10:22:25.773Z,1038.56
2016-12-28T10:23:25.783Z,1038.56
2016-12-28T10:24:26.288Z,1038.61
2016-12-28T10:25:26.095Z,1038.57
2016-12-28T10:26:26.735Z,1038.6
2016-12-28T10:27:25.812Z,1038.61
2016-12-28T10:28:25.819Z,1038.57
2016-12-28T10:29:25.901Z,1038.58
2016-12-28T10:30:25.836Z,1038.59
2016-12-28T10:31:25.923Z,1038.58
2016-12-28T10:32:25.903Z,1038.65
2016-12-28T10:33:25.860Z,1038.62
2016-12-28T10:34:25.905Z,1038.61
2016-12-28T10:35:25.886Z,1038.6
2016-12-28T10:36:25.885Z,1038.61
2016-12-28T10:37:25.893Z,1038.54
2016-12-28T10:38:25.990Z,1038.52
2016-12-28T10:39:25.995Z,1038.51
2016-12-28T10:40:26.002Z,1038.46
2016-12-28T10:41:25.931Z,1038.46
2016-12-28T10:42:25.934Z,1038.46
2016-12-28T10:43:25.941Z,1038.43
2016-12-28T10:44:26.014Z,1038.44
2016-12-28T10:45:26.034Z,1038.48
2016-12-28T10:46:25.965Z,1038.44
2016-12-28T10:47:26.007Z,1038.41
2016-12-28T10:48:25.984Z,1038.35
2016-12-28T10:49:25.989Z,1038.34
2016-12-28T10:50:26.050Z,1038.36
2016-12-28T10:51:26.009Z,1038.33
2016-12-28T10:52:26.015Z,1038.38
2016-12-28T10:53:26.024Z,1038.42
2016-12-28T10:54:26.057Z,1038.38
2016-12-28T10:55:26.090Z,1038.44
2016-12-28T10:56:26.048Z,1038.42
2016-12-28T10:57:26.141Z,1038.43
2016-12-28T10:58:26.107Z,1038.35
2016-12-28T10:59:26.074Z,1038.41
2016-12-28T11:00:26.179Z,1038.41
2016-12-28T11:01:26.125Z,1038.36
2016-12-28T11:02:26.097Z,1038.36
2016-12-28T11:03:26.207Z,1038.36
2016-12-28T11:04:26.221Z,1038.32
2016-12-28T11:05:26.211Z,1038.37
2016-12-28T11:06:26.181Z,1038.37
2016-12-28T11:07:26.138Z,1038.39
2016-12-28T11:08:26.146Z,1038.38
2016-12-28T11:09:26.205Z,1038.36
2016-12-28T11:10:26.242Z,1038.3
2016-12-28T11:11:26.169Z,1038.32
2016-12-28T11:12:26.178Z,1038.27
2016-12-28T11:13:26.186Z,1038.31
2016-12-28T11:14:26.193Z,1038.29
2016-12-28T11:15:26.202Z,1038.28
2016-12-28T11:16:26.259Z,1038.3
2016-12-28T11:17:26.279Z,1038.27
2016-12-28T11:18:26.248Z,1038.23
2016-12-28T11:19:26.304Z,1038.23
2016-12-28T11:20:26.312Z,1038.24
2016-12-28T11:21:26.252Z,1038.25
2016-12-28T11:22:26.403Z,1038.23
2016-12-28T11:23:26.340Z,1038.19
2016-12-28T11:24:26.293Z,1038.18
2016-12-28T11:25:26.370Z,1038.18
2016-12-28T11:26:26.294Z,1038.15
2016-12-28T11:27:26.301Z,1038.17
2016-12-28T11:28:26.308Z,1038.16
2016-12-28T11:29:26.328Z,1038.19
2016-12-28T11:30:26.450Z,1038.23
2016-12-28T11:31:26.339Z,1038.21
2016-12-28T11:32:26.425Z,1038.19
2016-12-28T11:33:26.446Z,1038.18
2016-12-28T11:34:26.436Z,1038.18
2016-12-28T11:35:26.419Z,1038.16
2016-12-28T11:36:26.428Z,1038.12
2016-12-28T11:37:26.511Z,1038.16
2016-12-28T11:38:26.554Z,1038.14
2016-12-28T11:39:26.401Z,1038.15
2016-12-28T11:40:26.540Z,1038.19
2016-12-28T11:41:26.419Z,1038.17
2016-12-28T11:42:26.427Z,1038.19
2016-12-28T11:43:26.452Z,1038.2
2016-12-28T11:44:26.444Z,1038.21
2016-12-28T11:45:26.519Z,1038.23
2016-12-28T11:46:26.462Z,1038.23
2016-12-28T11:47:26.469Z,1038.26
2016-12-28T11:48:26.537Z,1038.27
2016-12-28T11:49:26.560Z,1038.25
2016-12-28T11:50:26.494Z,1038.23
2016-12-28T11:51:26.568Z,1038.24
2016-12-28T11:52:26.601Z,1038.17
2016-12-28T11:53:26.570Z,1038.2
2016-12-28T11:54:26.618Z,1038.17
2016-12-28T11:55:26.565Z,1038.15
2016-12-28T11:56:26.604Z,1038.15
2016-12-28T11:57:26.589Z,1038.15
2016-12-28T11:58:27.044Z,1038.15
2016-12-28T11:59:26.660Z,1038.16
2016-12-28T12:00:26.629Z,1038.2
2016-12-28T12:01:26.679Z,1038.19
2016-12-28T12:02:26.686Z,1038.19
2016-12-28T12:03:26.605Z,1038.17
2016-12-28T12:04:26.684Z,1038.15
2016-12-28T12:05:26.670Z,1038.11
2016-12-28T12:06:26.680Z,1038.1
2016-12-28T12:07:26.736Z,1038.12
2016-12-28T12:08:26.695Z,1038.09